createdAt,value
2022-10-19T00:01:01.830Z,12.35
2022-10-19T00:03:28.710Z,12.70
2022-10-19T00:05:55.395Z,12.59
2022-10-19T00:08:22.256Z,12.33
2022-10-19T00:10:49.118Z,12.39
2022-10-19T00:13:17.649Z,12.52
2022-10-19T00:15:44.517Z,12.39
2022-10-19T00:18:11.307Z,12.11
2022-10-19T00:20:38.092Z,12.08
2022-10-19T00:23:04.833Z,12.54
2022-10-19T00:25:31.702Z,12.53
2022-10-19T00:27:58.490Z,12.15
2022-10-19T00:30:26.708Z,12.56
2022-10-19T00:32:53.496Z,12.54
2022-10-19T00:35:20.300Z,12.12
2022-10-19T00:37:47.242Z,12.32
2022-10-19T00:40:14.052Z,12.35
2022-10-19T00:42:40.732Z,12.47
2022-10-19T00:45:13.961Z,12.58
2022-10-19T00:47:44.496Z,12.61
2022-10-19T00:50:14.881Z,12.45
2022-10-19T00:52:42.309Z,12.27
2022-10-19T00:55:10.256Z,12.36
2022-10-19T00:57:37.325Z,12.27
2022-10-19T01:00:07.381Z,12.23
2022-10-19T01:02:34.950Z,12.43
2022-10-19T01:05:04.214Z,12.13
2022-10-19T01:07:31.156Z,12.22
2022-10-19T01:09:59.235Z,12.32
2022-10-19T01:12:46.935Z,12.43
2022-10-19T01:15:22.893Z,12.07
2022-10-19T01:18:00.911Z,12.26
2022-10-19T01:21:14.190Z,12.33
2022-10-19T01:24:28.471Z,12.04
2022-10-19T01:27:32.710Z,12.41
2022-10-19T01:30:08.556Z,11.90
2022-10-19T01:32:52.627Z,12.03
2022-10-19T01:35:26.696Z,12.16
2022-10-19T01:38:03.887Z,11.99
2022-10-19T01:40:39.034Z,12.27
2022-10-19T01:43:12.690Z,11.88
2022-10-19T01:45:45.218Z,11.91
2022-10-19T01:48:15.832Z,12.05
2022-10-19T01:50:47.615Z,12.15
2022-10-19T01:53:17.467Z,11.80
2022-10-19T01:55:47.734Z,11.78
2022-10-19T01:58:27.626Z,11.71
2022-10-19T02:01:08.677Z,11.61
2022-10-19T02:03:43.400Z,11.90
2022-10-19T02:06:11.773Z,11.44
2022-10-19T02:08:43.939Z,11.56
2022-10-19T02:11:10.783Z,11.71
2022-10-19T02:13:39.830Z,11.96
2022-10-19T02:16:16.306Z,11.49
2022-10-19T02:18:46.991Z,11.61
2022-10-19T02:21:13.916Z,11.67
2022-10-19T02:23:40.840Z,11.61
2022-10-19T02:26:08.657Z,11.95
2022-10-19T02:28:35.945Z,11.72
2022-10-19T02:31:03.059Z,11.66
2022-10-19T02:33:32.024Z,11.75
2022-10-19T02:36:00.190Z,11.88
2022-10-19T02:38:27.601Z,11.87
2022-10-19T02:41:02.895Z,11.83
2022-10-19T02:43:33.807Z,11.78
2022-10-19T02:46:04.403Z,11.71
2022-10-19T02:48:34.530Z,11.53
2022-10-19T02:51:01.223Z,11.64
2022-10-19T02:53:28.662Z,11.35
2022-10-19T02:55:55.390Z,11.51
2022-10-19T02:58:22.201Z,11.32
2022-10-19T03:00:48.982Z,11.64
2022-10-19T03:03:15.824Z,11.67
2022-10-19T03:05:43.984Z,11.62
2022-10-19T03:08:10.700Z,11.42
2022-10-19T03:10:37.420Z,11.43
2022-10-19T03:13:04.101Z,11.33
2022-10-19T03:15:30.858Z,11.14
2022-10-19T03:18:00.607Z,11.30
2022-10-19T03:20:27.404Z,11.05
2022-10-19T03:22:59.933Z,11.37
2022-10-19T03:25:26.797Z,11.19
2022-10-19T03:28:00.206Z,11.40
2022-10-19T03:30:26.943Z,11.23
2022-10-19T03:32:53.653Z,11.04
2022-10-19T03:35:20.534Z,11.08
2022-10-19T03:37:50.361Z,10.98
2022-10-19T03:40:18.513Z,11.11
2022-10-19T03:42:45.243Z,11.32
2022-10-19T03:45:12.291Z,11.17
2022-10-19T03:47:39.733Z,11.33
2022-10-19T03:50:06.977Z,11.47
2022-10-19T03:52:33.734Z,11.06
2022-10-19T03:55:00.495Z,11.49
2022-10-19T03:57:28.642Z,11.57
2022-10-19T04:00:00.742Z,11.28
2022-10-19T04:02:27.472Z,11.44
2022-10-19T04:04:56.102Z,11.13
2022-10-19T04:07:30.550Z,11.39
2022-10-19T04:09:57.511Z,11.39
2022-10-19T04:12:24.254Z,11.00
2022-10-19T04:14:56.969Z,11.33
2022-10-19T04:17:25.279Z,11.63
2022-10-19T04:19:51.981Z,11.12
2022-10-19T04:22:18.716Z,11.12
2022-10-19T04:24:45.418Z,11.17
2022-10-19T04:27:18.787Z,11.21
2022-10-19T04:29:46.774Z,11.35
2022-10-19T04:32:25.381Z,11.08
2022-10-19T04:34:52.084Z,11.33
2022-10-19T04:37:32.085Z,11.27
2022-10-19T04:40:47.222Z,10.95
2022-10-19T04:43:27.895Z,11.01
2022-10-19T04:46:00.697Z,10.97
2022-10-19T04:48:42.361Z,10.89
2022-10-19T04:51:17.071Z,10.88
2022-10-19T04:54:00.310Z,11.08
2022-10-19T04:56:39.274Z,11.04
2022-10-19T05:02:02.512Z,11.36
2022-10-19T05:04:45.193Z,11.37
2022-10-19T05:07:23.166Z,11.16
2022-10-19T05:09:57.355Z,11.15
2022-10-19T05:12:56.457Z,11.11
2022-10-19T05:15:49.779Z,11.27
2022-10-19T05:18:42.663Z,11.02
2022-10-19T05:21:40.074Z,11.19
2022-10-19T05:24:21.066Z,10.93
2022-10-19T05:27:00.796Z,10.99
2022-10-19T05:29:33.495Z,11.11
2022-10-19T05:32:09.292Z,11.17
2022-10-19T05:34:53.782Z,11.15
2022-10-19T05:37:24.920Z,11.00
2022-10-19T05:39:54.219Z,11.07
2022-10-19T05:42:24.470Z,11.03
2022-10-19T05:45:00.806Z,10.91
2022-10-19T05:50:42.447Z,10.78
2022-10-19T05:53:17.768Z,11.06
2022-10-19T05:55:57.389Z,10.74
2022-10-19T05:58:42.104Z,10.92
2022-10-19T06:01:17.973Z,10.81
2022-10-19T06:04:03.600Z,11.36
2022-10-19T06:06:40.669Z,10.97
2022-10-19T06:09:17.906Z,10.87
2022-10-19T06:12:03.441Z,11.06
2022-10-19T06:14:41.766Z,11.08
2022-10-19T06:20:27.500Z,11.04
2022-10-19T06:23:05.112Z,11.56
2022-10-19T06:26:07.259Z,11.73
2022-10-19T06:28:45.339Z,11.86
2022-10-19T06:31:24.917Z,11.70
2022-10-19T06:34:09.417Z,11.49
2022-10-19T06:36:45.551Z,11.29
2022-10-19T06:39:42.701Z,11.93
2022-10-19T06:45:38.005Z,12.12
2022-10-19T06:48:30.048Z,11.61
2022-10-19T06:51:07.876Z,12.08
2022-10-19T06:53:47.066Z,12.33
2022-10-19T06:56:38.134Z,12.16
2022-10-19T06:59:41.089Z,12.31
2022-10-19T07:05:40.208Z,12.49
2022-10-19T07:08:39.173Z,12.55
2022-10-19T07:11:45.566Z,12.62
2022-10-19T07:14:34.905Z,12.86
2022-10-19T08:14:53.176Z,14.76
2022-10-19T08:17:29.575Z,15.10
2022-10-19T08:20:02.320Z,15.40
2022-10-19T08:22:39.531Z,15.19
2022-10-19T08:25:14.368Z,15.50
2022-10-19T08:27:53.150Z,15.69
2022-10-19T08:30:36.029Z,15.74
2022-10-19T08:33:07.419Z,15.74
2022-10-19T08:35:36.711Z,15.90
2022-10-19T08:38:04.796Z,16.18
2022-10-19T08:40:34.881Z,16.42
2022-10-19T08:43:18.437Z,16.31
2022-10-19T08:46:11.481Z,16.44
2022-10-19T08:51:39.844Z,16.22
2022-10-19T08:54:24.589Z,15.78
2022-10-19T08:57:04.270Z,16.09
2022-10-19T08:59:45.623Z,15.31
2022-10-19T09:02:18.137Z,15.84
2022-10-19T09:05:03.350Z,16.13
2022-10-19T09:07:40.489Z,15.86
2022-10-19T09:10:31.443Z,15.51
2022-10-19T09:15:59.158Z,15.36
2022-10-19T09:18:40.772Z,15.85
2022-10-19T09:21:19.868Z,15.45
2022-10-19T09:24:13.872Z,15.09
2022-10-19T09:30:11.483Z,15.26
2022-10-19T09:32:39.520Z,15.66
2022-10-19T09:35:36.874Z,15.61
2022-10-19T09:38:13.002Z,15.97
2022-10-19T09:40:42.365Z,16.15
2022-10-19T09:49:18.513Z,16.16
2022-10-19T09:52:31.609Z,15.99
2022-10-19T09:55:31.022Z,16.78
2022-10-19T09:59:58.131Z,16.38
2022-10-19T10:02:41.176Z,16.51
2022-10-19T10:05:32.410Z,16.62
2022-10-19T10:08:34.338Z,16.61
2022-10-19T10:18:59.597Z,16.97
2022-10-19T10:45:32.527Z,17.02
2022-10-19T10:48:10.950Z,17.45
2022-10-19T10:51:13.489Z,17.54
2022-10-19T11:02:11.078Z,17.98
2022-10-19T11:11:49.557Z,18.14
2022-10-19T11:15:02.123Z,18.64
2022-10-19T11:18:05.828Z,18.94
2022-10-19T11:21:13.629Z,18.47
2022-10-19T11:24:02.067Z,18.81
2022-10-19T11:27:09.884Z,19.21
2022-10-19T11:30:16.520Z,18.91
2022-10-19T11:33:19.427Z,19.00
2022-10-19T11:36:21.882Z,18.86
2022-10-19T11:39:00.400Z,18.49
2022-10-19T11:41:38.042Z,18.86
2022-10-19T11:44:35.980Z,18.95
2022-10-19T11:47:42.918Z,18.83
2022-10-19T11:50:32.030Z,18.76
2022-10-19T11:53:22.606Z,19.36
2022-10-19T11:56:17.238Z,19.29
2022-10-19T11:58:59.612Z,18.96
2022-10-19T12:02:01.656Z,18.94
2022-10-19T12:04:43.223Z,19.40
2022-10-19T12:07:34.684Z,19.21
2022-10-19T12:10:16.418Z,19.01
2022-10-19T12:15:49.818Z,18.70
2022-10-19T12:18:38.900Z,19.21
2022-10-19T12:21:19.607Z,18.97
2022-10-19T12:26:36.863Z,18.78
2022-10-19T12:31:57.513Z,18.56
2022-10-19T12:34:49.142Z,18.57
2022-10-19T12:40:44.138Z,18.36
2022-10-19T12:43:38.130Z,18.71
2022-10-19T12:46:36.542Z,18.73
2022-10-19T12:52:42.708Z,19.10
2022-10-19T12:55:31.612Z,19.22
2022-10-19T12:58:41.546Z,18.94
2022-10-19T13:07:33.214Z,19.01
2022-10-19T13:10:41.616Z,19.14
2022-10-19T13:13:58.373Z,18.87
2022-10-19T13:34:02.473Z,20.03
2022-10-19T13:39:57.069Z,19.79
2022-10-19T13:43:31.537Z,19.91
2022-10-19T14:06:33.518Z,19.60
2022-10-19T14:09:39.356Z,19.83
2022-10-19T14:12:15.192Z,19.88
2022-10-19T14:15:53.859Z,19.96
2022-10-19T14:22:20.635Z,19.22
2022-10-19T14:25:13.716Z,19.76
2022-10-19T14:29:04.058Z,19.33
2022-10-19T14:49:26.043Z,19.15
2022-10-19T14:59:23.739Z,18.38
2022-10-19T15:02:34.292Z,18.67
2022-10-19T15:08:50.159Z,18.61
2022-10-19T15:11:45.808Z,18.34
2022-10-19T15:14:29.557Z,18.80
2022-10-19T15:17:09.032Z,18.57
2022-10-19T15:20:06.165Z,18.27
2022-10-19T15:23:02.641Z,18.32
2022-10-19T15:25:41.048Z,18.74
2022-10-19T15:28:43.898Z,18.73
2022-10-19T15:38:19.563Z,18.19
2022-10-19T15:41:23.590Z,18.39
2022-10-19T15:53:52.884Z,17.48
2022-10-19T16:02:23.154Z,17.28
2022-10-19T16:05:30.409Z,16.89
2022-10-19T16:08:27.473Z,16.90
2022-10-19T16:11:09.950Z,16.63
2022-10-19T16:17:16.297Z,16.36
2022-10-19T16:19:56.414Z,15.93
2022-10-19T16:23:41.892Z,15.80
2022-10-19T16:26:30.896Z,16.23
2022-10-19T16:29:26.738Z,16.36
2022-10-19T16:35:33.196Z,16.23
2022-10-19T16:38:02.903Z,16.15
2022-10-19T16:40:29.843Z,15.76
2022-10-19T16:42:58.628Z,15.61
2022-10-19T16:48:26.270Z,15.38
2022-10-19T16:54:23.368Z,15.11
2022-10-19T17:00:20.789Z,15.41
2022-10-19T17:03:26.512Z,15.25
2022-10-19T17:12:42.533Z,15.51
2022-10-19T17:15:56.443Z,15.79
2022-10-19T17:19:38.903Z,15.70
2022-10-19T17:29:05.681Z,15.63
2022-10-19T17:31:39.939Z,15.66
2022-10-19T17:41:22.585Z,15.63
2022-10-19T17:44:29.169Z,15.46
2022-10-19T17:47:23.592Z,15.33
2022-10-19T17:50:21.027Z,15.73
2022-10-19T17:53:05.107Z,15.84
2022-10-19T17:55:39.848Z,15.69
2022-10-19T17:58:36.419Z,15.17
2022-10-19T18:04:25.773Z,15.14
2022-10-19T18:06:55.346Z,15.41
2022-10-19T18:10:00.118Z,15.35
2022-10-19T18:12:44.720Z,15.70
2022-10-19T18:15:17.959Z,15.31
2022-10-19T18:17:47.914Z,15.21
2022-10-19T18:21:09.930Z,15.27
2022-10-19T18:23:58.820Z,15.11
2022-10-19T18:30:06.606Z,14.94
2022-10-19T18:33:00.634Z,15.17
2022-10-19T18:39:01.851Z,15.17
2022-10-19T18:41:53.183Z,14.90
2022-10-19T18:44:34.065Z,14.75
2022-10-19T18:47:23.579Z,14.57
2022-10-19T18:53:09.062Z,14.76
2022-10-19T18:56:07.906Z,14.37
2022-10-19T18:58:57.357Z,14.42
2022-10-19T19:01:51.997Z,14.56
2022-10-19T19:04:31.790Z,14.35
2022-10-19T19:07:28.215Z,14.22
2022-10-19T19:10:24.962Z,14.35
2022-10-19T19:13:02.839Z,14.95
2022-10-19T19:15:52.636Z,14.63
2022-10-19T19:21:20.643Z,14.27
2022-10-19T19:24:07.672Z,14.16
2022-10-19T19:26:48.937Z,14.02
2022-10-19T19:29:34.435Z,13.91
2022-10-19T19:32:25.181Z,14.06
2022-10-19T19:35:09.653Z,13.94
2022-10-19T19:37:41.341Z,14.06
2022-10-19T19:40:09.243Z,14.00
2022-10-19T19:42:36.169Z,13.98
2022-10-19T19:45:12.712Z,14.17
2022-10-19T19:47:39.530Z,13.99
2022-10-19T19:50:38.029Z,13.98
2022-10-19T19:53:05.139Z,14.05
2022-10-19T19:55:38.174Z,14.08
2022-10-19T19:58:10.311Z,14.24
2022-10-19T20:00:44.954Z,14.01
2022-10-19T20:05:52.674Z,13.76
2022-10-19T20:08:19.507Z,14.01
2022-10-19T20:10:46.272Z,14.39
2022-10-19T20:13:12.997Z,14.28
2022-10-19T20:15:41.319Z,14.38
2022-10-19T20:18:15.916Z,14.03
2022-10-19T20:20:51.951Z,13.94
2022-10-19T20:23:29.059Z,14.43
2022-10-19T20:28:56.933Z,14.65
2022-10-19T20:33:59.542Z,14.15
2022-10-19T20:36:31.932Z,14.01
2022-10-19T20:39:04.749Z,14.16
2022-10-19T20:41:38.685Z,14.15
2022-10-19T20:44:17.056Z,14.30
2022-10-19T20:47:15.824Z,14.15
2022-10-19T20:49:59.523Z,14.10
2022-10-19T20:52:37.742Z,14.36
2022-10-19T20:55:23.093Z,13.86
2022-10-19T20:57:49.786Z,14.24
2022-10-19T21:00:17.963Z,14.34
2022-10-19T21:03:01.826Z,14.46
2022-10-19T21:05:45.043Z,13.93
2022-10-19T21:08:11.721Z,14.04
2022-10-19T21:10:38.485Z,14.30
2022-10-19T21:13:05.251Z,14.22
2022-10-19T21:15:32.043Z,14.22
2022-10-19T21:18:00.115Z,14.14
2022-10-19T21:20:27.597Z,14.38
2022-10-19T21:22:54.298Z,14.27
2022-10-19T21:25:20.992Z,14.38
2022-10-19T21:27:47.625Z,14.08
2022-10-19T21:30:34.132Z,14.18
2022-10-19T21:33:05.690Z,14.00
2022-10-19T21:35:57.817Z,14.23
2022-10-19T21:49:09.534Z,14.01
2022-10-19T21:51:47.922Z,13.94
2022-10-19T21:54:16.674Z,13.86
2022-10-19T21:56:43.981Z,14.16
2022-10-19T21:59:15.397Z,14.15
2022-10-19T22:01:42.583Z,14.31
2022-10-19T22:04:15.614Z,13.84
2022-10-19T22:06:46.499Z,14.20
2022-10-19T22:09:23.900Z,13.82
2022-10-19T22:11:53.465Z,13.93
2022-10-19T22:14:20.263Z,14.10
2022-10-19T22:16:47.046Z,14.40
2022-10-19T22:19:15.194Z,14.35
2022-10-19T22:21:45.566Z,14.69
2022-10-19T22:24:14.325Z,14.53
2022-10-19T22:26:44.276Z,14.63
2022-10-19T22:29:11.501Z,14.75
2022-10-19T22:31:39.186Z,14.55
2022-10-19T22:34:08.003Z,14.60
2022-10-19T22:36:38.249Z,14.62
2022-10-19T22:39:05.940Z,14.30
2022-10-19T22:41:33.026Z,14.41
2022-10-19T22:43:59.943Z,14.78
2022-10-19T22:46:26.690Z,14.66
2022-10-19T22:48:53.373Z,14.49
2022-10-19T22:51:20.130Z,14.58
2022-10-19T22:53:50.260Z,14.65
2022-10-19T22:56:17.131Z,14.54
2022-10-19T22:58:45.719Z,14.87
2022-10-19T23:01:14.605Z,14.70
2022-10-19T23:03:41.892Z,14.67
2022-10-19T23:06:09.945Z,14.53
2022-10-19T23:08:37.145Z,14.44
2022-10-19T23:11:05.594Z,14.81
2022-10-19T23:13:32.660Z,14.77
2022-10-19T23:15:59.364Z,14.62
2022-10-19T23:18:27.446Z,14.87
2022-10-19T23:20:55.732Z,14.84
2022-10-19T23:23:25.653Z,14.90
2022-10-19T23:26:04.525Z,14.72
2022-10-19T23:28:34.336Z,14.64
2022-10-19T23:31:04.280Z,14.52
2022-10-19T23:33:31.791Z,14.74
2022-10-19T23:36:07.102Z,14.62
2022-10-19T23:38:34.334Z,14.52
2022-10-19T23:41:01.470Z,14.69
2022-10-19T23:43:28.422Z,14.59
2022-10-19T23:45:56.931Z,14.38
2022-10-19T23:48:24.071Z,14.63
2022-10-19T23:50:57.740Z,14.75
2022-10-19T23:53:24.723Z,14.67
2022-10-19T23:55:51.552Z,14.68
2022-10-19T23:58:18.199Z,14.33
